Time;durP1;ratioP1;P1;durP2;ratioP2;P2;SDS_P1;SDS_P2;PMS_P1;PMS_P2;Temp;Humidity;BMP_temperature;BMP_pressure;BME280_temperature;BME280_humidity;BME280_pressure;Samples;Min_cycle;Max_cycle;Signal;HPM_P1;HPM_P2
2022/07/23 00:01:06;;;;;;;;;;;22.80;99.90;;;;;;5127403;28;19951;-72
2022/07/23 00:03:36;;;;;;;;;;;22.80;99.90;;;;;;5126030;28;19987;-72
2022/07/23 00:06:03;;;;;;;;;;;22.80;99.90;;;;;;5127536;28;19951;-71
2022/07/23 00:08:30;;;;;;;;;;;22.70;99.90;;;;;;5127256;28;19947;-71
2022/07/23 00:10:56;;;;;;;;;;;22.60;99.90;;;;;;5127137;28;19951;-71
2022/07/23 00:13:24;;;;;;;;;;;22.60;99.90;;;;;;5126751;28;19927;-71
2022/07/23 00:15:51;;;;;;;;;;;22.60;99.90;;;;;;5127189;28;19990;-71
2022/07/23 00:18:18;;;;;;;;;;;22.60;99.90;;;;;;5127273;28;20187;-71
2022/07/23 00:20:44;;;;;;;;;;;22.60;99.90;;;;;;5127255;28;19920;-71
2022/07/23 00:23:11;;;;;;;;;;;22.50;99.90;;;;;;5126491;28;20092;-71
2022/07/23 00:25:37;;;;;;;;;;;22.50;99.90;;;;;;5126769;28;19920;-71
2022/07/23 00:28:07;;;;;;;;;;;22.60;99.90;;;;;;5125228;28;19919;-71
2022/07/23 00:30:35;;;;;;;;;;;22.50;99.90;;;;;;5126144;28;20219;-72
2022/07/23 00:33:03;;;;;;;;;;;22.50;99.90;;;;;;5126356;28;19920;-71
2022/07/23 00:35:31;;;;;;;;;;;22.50;99.90;;;;;;5126712;28;19919;-71
2022/07/23 00:37:58;;;;;;;;;;;22.40;99.90;;;;;;5126968;28;20172;-71
2022/07/23 00:40:25;;;;;;;;;;;22.30;99.90;;;;;;5126914;28;19947;-70
2022/07/23 00:42:52;;;;;;;;;;;22.20;99.90;;;;;;5126488;28;19927;-71
2022/07/23 00:45:20;;;;;;;;;;;22.20;99.90;;;;;;5126747;28;19987;-71
2022/07/23 00:47:48;;;;;;;;;;;22.20;99.90;;;;;;5126599;28;19930;-70
2022/07/23 00:50:15;;;;;;;;;;;22.20;99.90;;;;;;5126788;28;20278;-71
2022/07/23 00:52:42;;;;;;;;;;;22.20;99.90;;;;;;5126076;28;19931;-71
2022/07/23 00:55:09;;;;;;;;;;;22.20;99.90;;;;;;5126465;28;20007;-70
2022/07/23 00:57:36;;;;;;;;;;;22.20;99.90;;;;;;5126266;28;20267;-71
2022/07/23 01:00:04;;;;;;;;;;;22.20;99.90;;;;;;5126050;28;19927;-70
2022/07/23 01:02:31;;;;;;;;;;;22.30;99.90;;;;;;5125621;28;19954;-70
2022/07/23 01:04:59;;;;;;;;;;;22.20;99.90;;;;;;5128420;22;19955;-68
2022/07/23 01:07:25;;;;;;;;;;;22.20;99.90;;;;;;5104836;28;19995;-68
2022/07/23 01:09:52;;;;;;;;;;;22.10;99.90;;;;;;5105178;28;19951;-71
2022/07/23 01:12:19;;;;;;;;;;;22.10;99.90;;;;;;5105104;28;19984;-69
2022/07/23 01:14:46;;;;;;;;;;;22.10;99.90;;;;;;5104696;28;19991;-69
2022/07/23 01:17:12;;;;;;;;;;;22.10;99.90;;;;;;5104629;28;20122;-69
2022/07/23 01:19:39;;;;;;;;;;;22.10;99.90;;;;;;5104796;28;19920;-69
2022/07/23 01:22:07;;;;;;;;;;;22.10;99.90;;;;;;5106921;28;20065;-68
2022/07/23 01:24:35;;;;;;;;;;;22.10;99.90;;;;;;5124375;28;19987;-69
2022/07/23 01:27:02;;;;;;;;;;;22.10;99.90;;;;;;5123407;28;19958;-68
2022/07/23 01:29:28;;;;;;;;;;;22.10;99.90;;;;;;5124788;28;20272;-69
2022/07/23 01:31:55;;;;;;;;;;;22.10;99.90;;;;;;5124666;28;20215;-69
2022/07/23 01:34:22;;;;;;;;;;;22.20;99.90;;;;;;5124206;28;19978;-69
2022/07/23 01:36:48;;;;;;;;;;;22.20;99.90;;;;;;5124616;28;19920;-68
2022/07/23 01:39:15;;;;;;;;;;;22.20;99.90;;;;;;5124288;28;19943;-69
2022/07/23 01:41:43;;;;;;;;;;;22.20;99.90;;;;;;5124742;28;19920;-69
2022/07/23 01:44:10;;;;;;;;;;;22.20;99.90;;;;;;5124079;28;20227;-69
2022/07/23 01:46:36;;;;;;;;;;;22.20;99.90;;;;;;5124617;28;20162;-68
2022/07/23 01:49:03;;;;;;;;;;;22.30;99.90;;;;;;5124559;28;20206;-69
2022/07/23 01:51:30;;;;;;;;;;;22.20;99.90;;;;;;5124723;28;19920;-68
2022/07/23 01:53:56;;;;;;;;;;;22.30;99.90;;;;;;5124054;28;19999;-69
2022/07/23 01:56:23;;;;;;;;;;;22.30;99.90;;;;;;5124279;28;20173;-69
2022/07/23 01:58:51;;;;;;;;;;;22.30;99.90;;;;;;5107381;28;20230;-69
2022/07/23 02:01:18;;;;;;;;;;;22.30;99.90;;;;;;5103887;28;19928;-69
2022/07/23 02:03:44;;;;;;;;;;;22.40;99.90;;;;;;5103563;28;20135;-68
2022/07/23 02:06:11;;;;;;;;;;;22.40;99.90;;;;;;5103721;28;20184;-68
2022/07/23 02:08:38;;;;;;;;;;;22.40;99.90;;;;;;5117776;28;20258;-68
2022/07/23 02:11:04;;;;;;;;;;;22.40;99.90;;;;;;5124183;28;20250;-68
2022/07/23 02:13:31;;;;;;;;;;;22.50;99.90;;;;;;5123882;28;20321;-68
2022/07/23 02:15:59;;;;;;;;;;;22.50;99.90;;;;;;5124054;28;19990;-69
2022/07/23 02:18:26;;;;;;;;;;;22.50;99.90;;;;;;5123820;28;19951;-70
2022/07/23 02:20:52;;;;;;;;;;;22.50;99.90;;;;;;5123588;28;20104;-69
2022/07/23 02:23:19;;;;;;;;;;;22.60;99.90;;;;;;5123923;28;19943;-69
2022/07/23 02:25:45;;;;;;;;;;;22.70;99.90;;;;;;5124154;28;19920;-69
2022/07/23 02:28:12;;;;;;;;;;;22.70;99.90;;;;;;5112775;28;20234;-68
2022/07/23 02:30:39;;;;;;;;;;;22.80;99.90;;;;;;5103610;28;19948;-69
2022/07/23 02:33:07;;;;;;;;;;;22.80;99.90;;;;;;5116806;28;19919;-69
2022/07/23 02:35:34;;;;;;;;;;;22.90;99.90;;;;;;5123666;28;19926;-69
2022/07/23 02:38:01;;;;;;;;;;;22.90;99.90;;;;;;5123747;28;20250;-69
2022/07/23 02:40:27;;;;;;;;;;;22.90;99.90;;;;;;5123973;28;19951;-68
2022/07/23 02:42:54;;;;;;;;;;;22.90;99.90;;;;;;5123684;28;19982;-69
2022/07/23 02:45:21;;;;;;;;;;;22.90;99.90;;;;;;5123357;28;20270;-68
2022/07/23 02:47:47;;;;;;;;;;;22.90;99.90;;;;;;5123789;28;19987;-68
2022/07/23 02:50:15;;;;;;;;;;;23.00;99.90;;;;;;5123589;28;19958;-69
2022/07/23 02:52:42;;;;;;;;;;;23.00;99.90;;;;;;5123068;28;20262;-69
2022/07/23 02:55:09;;;;;;;;;;;23.00;99.90;;;;;;5123514;28;20171;-68
2022/07/23 02:57:35;;;;;;;;;;;23.00;99.90;;;;;;5123336;28;19920;-69
2022/07/23 03:00:02;;;;;;;;;;;22.90;99.90;;;;;;5123475;28;20118;-69
2022/07/23 03:02:28;;;;;;;;;;;22.90;99.90;;;;;;5123393;28;19987;-68
2022/07/23 03:04:55;;;;;;;;;;;22.90;99.90;;;;;;5123185;28;19954;-69
2022/07/23 03:07:23;;;;;;;;;;;22.90;99.90;;;;;;5123578;28;19927;-69
2022/07/23 03:09:50;;;;;;;;;;;22.90;99.90;;;;;;5123456;28;19954;-69
2022/07/23 03:12:16;;;;;;;;;;;22.90;99.90;;;;;;5123625;28;20164;-69
2022/07/23 03:14:43;;;;;;;;;;;22.80;99.90;;;;;;5123197;28;20100;-68
2022/07/23 03:17:10;;;;;;;;;;;22.80;99.90;;;;;;5123178;28;19942;-68
2022/07/23 03:19:38;;;;;;;;;;;22.80;99.90;;;;;;5123642;28;19947;-69
2022/07/23 03:22:05;;;;;;;;;;;22.80;99.90;;;;;;5123237;28;20276;-69
2022/07/23 03:27:14;;;;;;;;;;;22.80;99.90;;;;;;5120699;28;20207;-69
2022/07/23 03:29:40;;;;;;;;;;;22.70;99.90;;;;;;5102881;28;19924;-69
2022/07/23 03:32:07;;;;;;;;;;;22.70;99.90;;;;;;5104441;28;19951;-68
2022/07/23 03:34:34;;;;;;;;;;;22.70;99.90;;;;;;5123113;28;19986;-69
2022/07/23 03:37:00;;;;;;;;;;;22.70;99.90;;;;;;5123457;28;19990;-70
2022/07/23 03:39:27;;;;;;;;;;;22.70;99.90;;;;;;5123248;28;19919;-69
2022/07/23 03:41:55;;;;;;;;;;;22.60;99.90;;;;;;5123156;28;19920;-69
2022/07/23 03:44:22;;;;;;;;;;;22.60;99.90;;;;;;5122376;28;20126;-69
2022/07/23 03:46:48;;;;;;;;;;;22.70;99.90;;;;;;5123325;28;20180;-69
2022/07/23 03:49:15;;;;;;;;;;;22.60;99.90;;;;;;5123005;28;20245;-69
2022/07/23 03:51:42;;;;;;;;;;;22.60;99.90;;;;;;5123259;28;19960;-69
2022/07/23 03:54:08;;;;;;;;;;;22.60;99.90;;;;;;5123232;28;19926;-69
2022/07/23 03:56:35;;;;;;;;;;;22.60;99.90;;;;;;5123266;28;19926;-69
2022/07/23 03:59:03;;;;;;;;;;;22.60;99.90;;;;;;5106726;28;19920;-69
2022/07/23 04:01:30;;;;;;;;;;;22.60;99.90;;;;;;5102659;28;20199;-69
2022/07/23 04:03:56;;;;;;;;;;;22.60;99.90;;;;;;5103166;28;19951;-69
2022/07/23 04:06:23;;;;;;;;;;;22.60;99.90;;;;;;5106207;28;19958;-69
2022/07/23 04:08:49;;;;;;;;;;;22.60;99.90;;;;;;5108338;28;20049;-69
2022/07/23 04:11:16;;;;;;;;;;;22.50;99.90;;;;;;5126510;28;19920;-68
2022/07/23 04:13:43;;;;;;;;;;;22.60;99.90;;;;;;5126145;28;20215;-69
2022/07/23 04:16:11;;;;;;;;;;;22.50;99.90;;;;;;5126471;28;19959;-69
2022/07/23 04:18:37;;;;;;;;;;;22.50;99.90;;;;;;5126608;28;20115;-69
2022/07/23 04:21:04;;;;;;;;;;;22.50;99.90;;;;;;5126211;28;20100;-69
2022/07/23 04:23:31;;;;;;;;;;;22.50;99.90;;;;;;5126038;28;19935;-69
2022/07/23 04:25:57;;;;;;;;;;;22.50;99.90;;;;;;5126173;28;19927;-69
2022/07/23 04:28:24;;;;;;;;;;;22.50;99.90;;;;;;5116303;28;20234;-69
2022/07/23 04:30:51;;;;;;;;;;;22.50;99.90;;;;;;5106073;28;19920;-68
2022/07/23 04:33:19;;;;;;;;;;;22.50;99.90;;;;;;5109077;28;19982;-69
2022/07/23 04:35:46;;;;;;;;;;;22.60;99.90;;;;;;5125929;28;19920;-69
2022/07/23 04:38:12;;;;;;;;;;;22.50;99.90;;;;;;5125884;28;20122;-69
2022/07/23 04:40:39;;;;;;;;;;;22.50;99.90;;;;;;5125660;28;19919;-69
2022/07/23 04:43:06;;;;;;;;;;;22.50;99.90;;;;;;5125478;28;19919;-69
2022/07/23 04:45:32;;;;;;;;;;;22.50;99.90;;;;;;5125947;28;19983;-68
2022/07/23 04:47:59;;;;;;;;;;;22.50;99.90;;;;;;5125987;28;19920;-68
2022/07/23 04:50:27;;;;;;;;;;;22.50;99.90;;;;;;5125673;28;19919;-69
2022/07/23 04:52:54;;;;;;;;;;;22.40;99.90;;;;;;5125442;28;19990;-69
2022/07/23 04:55:20;;;;;;;;;;;22.40;99.90;;;;;;5125853;28;20003;-70
2022/07/23 04:57:47;;;;;;;;;;;22.40;99.90;;;;;;5121542;28;19920;-68
2022/07/23 05:00:14;;;;;;;;;;;22.50;99.90;;;;;;5105427;28;19920;-70
2022/07/23 05:02:41;;;;;;;;;;;22.50;99.90;;;;;;5104936;28;19955;-69
2022/07/23 05:05:08;;;;;;;;;;;22.60;99.90;;;;;;5104767;28;19920;-69
2022/07/23 05:07:36;;;;;;;;;;;22.60;99.90;;;;;;5104849;28;19920;-69
2022/07/23 05:10:02;;;;;;;;;;;22.60;99.90;;;;;;5125531;28;19919;-69
2022/07/23 05:12:29;;;;;;;;;;;22.70;99.90;;;;;;5125384;28;19919;-69
2022/07/23 05:14:56;;;;;;;;;;;22.80;99.90;;;;;;5124865;28;20244;-69
2022/07/23 05:17:22;;;;;;;;;;;22.80;99.90;;;;;;5125145;28;19966;-69
2022/07/23 05:19:49;;;;;;;;;;;22.90;99.90;;;;;;5124930;28;19927;-69
2022/07/23 05:22:15;;;;;;;;;;;22.90;99.90;;;;;;5124935;28;19958;-69
2022/07/23 05:24:43;;;;;;;;;;;22.90;99.90;;;;;;5124796;28;20341;-69
2022/07/23 05:27:10;;;;;;;;;;;23.00;99.90;;;;;;5125056;28;19926;-69
2022/07/23 05:29:37;;;;;;;;;;;23.10;99.90;;;;;;5106221;28;19952;-70
2022/07/23 05:32:04;;;;;;;;;;;23.10;99.90;;;;;;5124760;28;20234;-69
2022/07/23 05:34:30;;;;;;;;;;;23.20;99.90;;;;;;5124683;28;19919;-69
2022/07/23 05:36:57;;;;;;;;;;;23.20;99.90;;;;;;5124901;28;19958;-69
2022/07/23 05:39:24;;;;;;;;;;;23.20;99.90;;;;;;5125042;28;19920;-69
2022/07/23 05:41:52;;;;;;;;;;;23.30;99.90;;;;;;5124680;28;19943;-69
2022/07/23 05:44:18;;;;;;;;;;;23.30;99.90;;;;;;5124805;28;19951;-69
2022/07/23 05:46:45;;;;;;;;;;;23.20;99.90;;;;;;5124744;28;20115;-69
2022/07/23 05:49:12;;;;;;;;;;;23.30;99.90;;;;;;5124826;28;20037;-68
2022/07/23 05:51:38;;;;;;;;;;;23.30;99.90;;;;;;5124960;28;19965;-72
2022/07/23 05:54:05;;;;;;;;;;;23.30;99.90;;;;;;5124754;28;19930;-71
2022/07/23 05:56:32;;;;;;;;;;;23.40;99.90;;;;;;5124533;28;19967;-69
2022/07/23 05:59:00;;;;;;;;;;;23.50;99.90;;;;;;5124380;28;19920;-70
2022/07/23 06:01:26;;;;;;;;;;;23.60;99.90;;;;;;5124794;28;19982;-70
2022/07/23 06:03:53;;;;;;;;;;;23.70;99.90;;;;;;5122796;28;20208;-69
2022/07/23 06:06:20;;;;;;;;;;;23.80;99.90;;;;;;5123787;28;19951;-70
2022/07/23 06:08:46;;;;;;;;;;;23.80;99.90;;;;;;5124458;28;20076;-71
2022/07/23 06:11:13;;;;;;;;;;;24.00;99.90;;;;;;5124000;28;20268;-70
2022/07/23 06:13:39;;;;;;;;;;;24.00;99.90;;;;;;5124034;28;20104;-71
2022/07/23 06:16:08;;;;;;;;;;;24.10;99.90;;;;;;5124155;28;19920;-69
2022/07/23 06:18:34;;;;;;;;;;;24.20;99.90;;;;;;5123841;28;19977;-71
2022/07/23 06:21:01;;;;;;;;;;;24.10;99.90;;;;;;5123911;28;19920;-71
2022/07/23 06:23:28;;;;;;;;;;;24.20;99.90;;;;;;5123854;28;19919;-70
2022/07/23 06:25:54;;;;;;;;;;;24.30;99.90;;;;;;5123644;28;19962;-70
2022/07/23 06:28:21;;;;;;;;;;;24.30;99.90;;;;;;5116882;28;19978;-70
2022/07/23 06:30:48;;;;;;;;;;;24.30;99.90;;;;;;5112135;28;19920;-70
2022/07/23 06:33:16;;;;;;;;;;;24.40;99.90;;;;;;5123496;28;19955;-71
2022/07/23 06:35:42;;;;;;;;;;;24.40;99.90;;;;;;5123790;28;19923;-69
2022/07/23 06:38:09;;;;;;;;;;;24.50;99.90;;;;;;5123930;28;20180;-70
2022/07/23 06:40:36;;;;;;;;;;;24.50;99.90;;;;;;5123904;28;20138;-70
2022/07/23 06:43:02;;;;;;;;;;;24.40;99.90;;;;;;5123270;28;20211;-71
2022/07/23 06:45:29;;;;;;;;;;;24.40;99.90;;;;;;5123621;28;20245;-70
2022/07/23 06:47:56;;;;;;;;;;;24.40;99.90;;;;;;5116983;28;19967;-70
2022/07/23 06:50:24;;;;;;;;;;;24.30;99.90;;;;;;5106224;28;19921;-70
2022/07/23 06:52:50;;;;;;;;;;;24.30;99.90;;;;;;5103841;28;19920;-70
2022/07/23 06:55:17;;;;;;;;;;;24.30;99.90;;;;;;5116610;28;19920;-73
2022/07/23 06:57:44;;;;;;;;;;;24.20;99.90;;;;;;5123143;28;20057;-68
2022/07/23 07:00:11;;;;;;;;;;;24.10;99.90;;;;;;5107154;28;20175;-70
2022/07/23 07:02:38;;;;;;;;;;;24.00;99.90;;;;;;5123235;28;19954;-70
2022/07/23 07:05:05;;;;;;;;;;;23.90;99.90;;;;;;5133567;23;19920;-67
2022/07/23 07:07:32;;;;;;;;;;;23.80;99.90;;;;;;5123469;28;19920;-69
2022/07/23 07:09:59;;;;;;;;;;;23.80;99.90;;;;;;5123460;28;19986;-67
2022/07/23 07:12:26;;;;;;;;;;;23.70;99.90;;;;;;5123534;28;19986;-65
2022/07/23 07:14:53;;;;;;;;;;;23.60;99.90;;;;;;5122404;28;19954;-65
2022/07/23 07:17:20;;;;;;;;;;;23.60;99.90;;;;;;5139770;28;19926;-66
2022/07/23 07:19:46;;;;;;;;;;;23.60;99.90;;;;;;5143289;28;19951;-66
2022/07/23 07:22:13;;;;;;;;;;;23.60;99.90;;;;;;5144217;28;19950;-66
2022/07/23 07:24:42;;;;;;;;;;;23.60;99.90;;;;;;5143023;28;19987;-66
2022/07/23 07:27:08;;;;;;;;;;;23.60;99.90;;;;;;5144602;28;19983;-66
2022/07/23 07:29:35;;;;;;;;;;;23.60;99.90;;;;;;5140291;28;20282;-65
2022/07/23 07:32:02;;;;;;;;;;;23.60;99.90;;;;;;5144347;28;19925;-66
2022/07/23 07:34:28;;;;;;;;;;;23.60;99.90;;;;;;5143941;28;19951;-66
2022/07/23 07:36:55;;;;;;;;;;;23.60;99.90;;;;;;5144314;28;19926;-65
2022/07/23 07:39:23;;;;;;;;;;;23.70;99.90;;;;;;5146303;27;20014;-65
2022/07/23 07:41:51;;;;;;;;;;;23.60;99.90;;;;;;5148478;27;19920;-66
2022/07/23 07:44:18;;;;;;;;;;;23.60;99.90;;;;;;5144543;27;19957;-66
2022/07/23 07:46:44;;;;;;;;;;;23.60;99.90;;;;;;5135518;27;19920;-66
2022/07/23 07:49:11;;;;;;;;;;;23.60;99.90;;;;;;5146212;27;19943;-68
2022/07/23 07:51:38;;;;;;;;;;;23.60;99.90;;;;;;5127652;28;19928;-65
2022/07/23 07:54:04;;;;;;;;;;;23.60;99.90;;;;;;5126308;28;19951;-66
2022/07/23 07:56:31;;;;;;;;;;;23.70;99.90;;;;;;5126850;28;19920;-65
2022/07/23 07:59:00;;;;;;;;;;;23.60;99.90;;;;;;5141145;27;19990;-66
2022/07/23 08:01:27;;;;;;;;;;;23.60;99.90;;;;;;5141096;27;19954;-66
2022/07/23 08:03:54;;;;;;;;;;;23.60;99.90;;;;;;5125664;28;19954;-65
2022/07/23 08:06:20;;;;;;;;;;;23.60;99.90;;;;;;5128472;27;19920;-65
2022/07/23 08:08:47;;;;;;;;;;;23.60;99.90;;;;;;5147962;27;19920;-65
2022/07/23 08:11:14;;;;;;;;;;;23.50;99.90;;;;;;5148326;27;19950;-65
2022/07/23 08:13:40;;;;;;;;;;;23.30;99.90;;;;;;5140464;27;19942;-65
2022/07/23 08:16:08;;;;;;;;;;;23.20;99.90;;;;;;5144548;27;19927;-67
2022/07/23 08:18:35;;;;;;;;;;;23.00;99.90;;;;;;5145477;27;19958;-67
2022/07/23 08:21:04;;;;;;;;;;;22.90;99.90;;;;;;5139671;27;20126;-67
2022/07/23 08:23:30;;;;;;;;;;;22.60;99.90;;;;;;5144349;27;19982;-67
2022/07/23 08:25:59;;;;;;;;;;;22.50;99.90;;;;;;5139808;27;19951;-66
2022/07/23 08:28:26;;;;;;;;;;;22.30;99.90;;;;;;5137106;27;20282;-67
2022/07/23 08:30:52;;;;;;;;;;;22.10;99.90;;;;;;5147596;27;19958;-67
2022/07/23 08:33:20;;;;;;;;;;;21.90;99.90;;;;;;5146460;27;19919;-67
2022/07/23 08:35:48;;;;;;;;;;;21.70;99.90;;;;;;5147131;27;19986;-67
2022/07/23 08:38:15;;;;;;;;;;;21.70;99.90;;;;;;5146941;27;20226;-66
2022/07/23 08:40:42;;;;;;;;;;;21.50;99.90;;;;;;5146701;27;19962;-67
2022/07/23 08:43:10;;;;;;;;;;;21.40;99.90;;;;;;5138478;27;19947;-66
2022/07/23 08:45:37;;;;;;;;;;;21.10;99.90;;;;;;5140981;27;19987;-67
2022/07/23 08:48:05;;;;;;;;;;;21.00;99.90;;;;;;5126351;28;19954;-67
2022/07/23 08:50:36;;;;;;;;;;;20.90;99.90;;;;;;5125642;28;19948;-66
2022/07/23 08:53:03;;;;;;;;;;;20.60;99.90;;;;;;5131741;27;20119;-67
2022/07/23 08:55:29;;;;;;;;;;;20.40;99.90;;;;;;5130638;27;19919;-67
2022/07/23 08:57:56;;;;;;;;;;;20.20;99.90;;;;;;5134912;27;19983;-65
2022/07/23 09:00:23;;;;;;;;;;;20.00;99.90;;;;;;5143175;27;19927;-66
2022/07/23 09:02:50;;;;;;;;;;;19.90;99.90;;;;;;5137803;27;19995;-68
2022/07/23 09:05:20;;;;;;;;;;;19.80;99.90;;;;;;5141062;27;20165;-68
2022/07/23 09:08:08;;;;;;;;;;;19.70;99.90;;;;;;5139545;27;19920;-69
2022/07/23 09:10:45;;;;;;;;;;;19.80;99.90;;;;;;5125970;28;20203;-69
2022/07/23 09:13:24;;;;;;;;;;;19.80;99.90;;;;;;5134090;27;20218;-68
2022/07/23 09:15:50;;;;;;;;;;;19.80;99.90;;;;;;5146274;27;19970;-68
2022/07/23 09:18:17;;;;;;;;;;;19.90;99.90;;;;;;5145264;27;19977;-68
2022/07/23 09:20:44;;;;;;;;;;;19.90;99.90;;;;;;5146329;27;19919;-68
2022/07/23 09:23:13;;;;;;;;;;;20.00;99.90;;;;;;5135706;27;19991;-67
2022/07/23 09:25:40;;;;;;;;;;;20.10;99.90;;;;;;5145656;27;19920;-65
2022/07/23 09:28:07;;;;;;;;;;;20.00;99.90;;;;;;5145811;27;19987;-65
2022/07/23 09:30:34;;;;;;;;;;;20.00;99.90;;;;;;5146066;27;19979;-68
2022/07/23 09:33:05;;;;;;;;;;;20.00;99.90;;;;;;5142337;27;19961;-67
2022/07/23 09:35:45;;;;;;;;;;;20.00;99.90;;;;;;5125297;28;19919;-68
2022/07/23 09:38:11;;;;;;;;;;;19.90;99.90;;;;;;5125426;28;19963;-68
2022/07/23 09:40:39;;;;;;;;;;;20.00;99.90;;;;;;5125151;28;19982;-68
2022/07/23 09:43:06;;;;;;;;;;;20.00;99.90;;;;;;5124420;28;20275;-68
2022/07/23 09:45:33;;;;;;;;;;;20.00;99.90;;;;;;5125368;28;19983;-68
2022/07/23 09:48:11;;;;;;;;;;;20.10;99.90;;;;;;5130155;27;19951;-72
2022/07/23 09:50:37;;;;;;;;;;;20.10;99.90;;;;;;5145243;27;19965;-67
2022/07/23 09:53:04;;;;;;;;;;;20.20;99.90;;;;;;5144611;27;20246;-67
2022/07/23 09:55:35;;;;;;;;;;;20.20;99.90;;;;;;5145371;27;19920;-68
2022/07/23 09:58:03;;;;;;;;;;;20.30;99.90;;;;;;5142665;27;19920;-68
2022/07/23 10:00:30;;;;;;;;;;;20.40;99.90;;;;;;5141207;27;19919;-68
2022/07/23 10:02:57;;;;;;;;;;;20.40;99.90;;;;;;5145060;27;20456;-68
2022/07/23 10:05:25;;;;;;;;;;;20.50;99.90;;;;;;5144787;27;19958;-68
2022/07/23 10:07:52;;;;;;;;;;;20.60;99.90;;;;;;5145101;27;19957;-68
2022/07/23 10:10:18;;;;;;;;;;;20.60;99.90;;;;;;5145042;27;19958;-68
2022/07/23 10:12:56;;;;;;;;;;;20.70;99.90;;;;;;5144799;27;19919;-68
2022/07/23 10:15:25;;;;;;;;;;;20.60;99.90;;;;;;5145242;27;19926;-68
2022/07/23 10:17:52;;;;;;;;;;;20.60;99.90;;;;;;5145063;27;19920;-68
2022/07/23 10:20:19;;;;;;;;;;;20.70;99.90;;;;;;5144885;27;19982;-68
2022/07/23 10:22:54;;;;;;;;;;;20.60;99.90;;;;;;5135360;27;19927;-68
2022/07/23 10:25:23;;;;;;;;;;;20.60;99.90;;;;;;5144990;27;20109;-68
2022/07/23 10:28:05;;;;;;;;;;;20.60;99.90;;;;;;5145118;27;20016;-68
2022/07/23 10:30:37;;;;;;;;;;;20.70;99.90;;;;;;5124620;28;19983;-68
2022/07/23 10:33:12;;;;;;;;;;;20.90;99.90;;;;;;5125280;27;20300;-68
2022/07/23 10:35:43;;;;;;;;;;;21.00;99.90;;;;;;5141868;27;19927;-69
2022/07/23 10:38:14;;;;;;;;;;;21.20;99.90;;;;;;5136379;27;19998;-68
2022/07/23 10:40:53;;;;;;;;;;;21.30;99.90;;;;;;5143435;27;19920;-66
2022/07/23 10:43:20;;;;;;;;;;;21.30;99.90;;;;;;5137123;27;20258;-65
2022/07/23 10:45:48;;;;;;;;;;;21.20;99.90;;;;;;5133543;27;20233;-65
2022/07/23 10:48:16;;;;;;;;;;;21.20;99.90;;;;;;5141444;27;19954;-65
2022/07/23 10:50:43;;;;;;;;;;;21.20;99.90;;;;;;5144274;27;19923;-65
2022/07/23 10:53:17;;;;;;;;;;;21.20;99.90;;;;;;5137143;28;19920;-65
2022/07/23 10:55:45;;;;;;;;;;;21.20;99.90;;;;;;5143886;28;19976;-65
2022/07/23 10:58:12;;;;;;;;;;;21.10;99.90;;;;;;5144354;28;19920;-65
2022/07/23 11:00:39;;;;;;;;;;;21.20;99.90;;;;;;5144820;28;19990;-65
2022/07/23 11:03:27;;;;;;;;;;;21.20;99.90;;;;;;5140356;28;19926;-65
2022/07/23 11:05:53;;;;;;;;;;;21.30;99.90;;;;;;5141201;28;19919;-65
2022/07/23 11:08:20;;;;;;;;;;;21.40;99.90;;;;;;5143053;28;19943;-65
2022/07/23 11:10:48;;;;;;;;;;;21.60;99.90;;;;;;5138337;28;20114;-66
2022/07/23 11:13:36;;;;;;;;;;;21.80;99.90;;;;;;5132942;27;19990;-65
2022/07/23 11:16:08;;;;;;;;;;;22.10;99.90;;;;;;5133145;27;19977;-65
2022/07/23 11:18:53;;;;;;;;;;;22.20;99.90;;;;;;5127027;28;19920;-65
2022/07/23 11:21:41;;;;;;;;;;;22.50;99.90;;;;;;5127866;28;19986;-65
2022/07/23 11:24:10;;;;;;;;;;;22.60;99.90;;;;;;5127003;28;20203;-65
2022/07/23 11:26:48;;;;;;;;;;;22.70;99.90;;;;;;5133216;27;19927;-65
2022/07/23 11:29:35;;;;;;;;;;;22.80;99.90;;;;;;5148713;27;19955;-64
2022/07/23 11:32:03;;;;;;;;;;;22.90;99.90;;;;;;5131502;27;19935;-68
2022/07/23 11:34:30;;;;;;;;;;;23.10;99.90;;;;;;5147207;27;19955;-65
2022/07/23 11:36:57;;;;;;;;;;;23.40;99.90;;;;;;5140614;27;19975;-66
2022/07/23 11:39:26;;;;;;;;;;;23.70;99.90;;;;;;5138809;27;19926;-65
2022/07/23 11:41:53;;;;;;;;;;;23.90;99.90;;;;;;5145328;27;20182;-65
2022/07/23 11:44:26;;;;;;;;;;;24.20;99.90;;;;;;5126146;27;19951;-65
2022/07/23 11:46:56;;;;;;;;;;;24.40;99.90;;;;;;5142503;27;19982;-65
2022/07/23 11:49:23;;;;;;;;;;;24.60;99.90;;;;;;5147054;27;19923;-65
2022/07/23 11:52:03;;;;;;;;;;;24.80;99.90;;;;;;5147515;27;19961;-65
2022/07/23 11:54:31;;;;;;;;;;;24.90;99.90;;;;;;5143885;27;19923;-66
2022/07/23 11:56:58;;;;;;;;;;;25.10;99.90;;;;;;5146375;27;19919;-65
2022/07/23 11:59:26;;;;;;;;;;;25.20;99.90;;;;;;5127229;28;19920;-65
2022/07/23 12:01:57;;;;;;;;;;;25.30;99.90;;;;;;5127132;28;19988;-65
2022/07/23 12:04:23;;;;;;;;;;;25.40;99.90;;;;;;5126400;28;19982;-65
2022/07/23 12:06:50;;;;;;;;;;;25.40;99.90;;;;;;5127270;28;19966;-65
2022/07/23 12:09:16;;;;;;;;;;;25.60;99.90;;;;;;5132387;27;19951;-65
2022/07/23 12:11:58;;;;;;;;;;;25.70;99.90;;;;;;5146933;27;19973;-66
2022/07/23 12:14:24;;;;;;;;;;;25.90;99.90;;;;;;5126073;28;19919;-65
2022/07/23 12:17:06;;;;;;;;;;;26.00;99.90;;;;;;5126955;28;19920;-65
2022/07/23 12:19:33;;;;;;;;;;;26.20;99.90;;;;;;5127036;28;19970;-65
2022/07/23 12:22:00;;;;;;;;;;;26.40;99.90;;;;;;5128464;27;19988;-65
2022/07/23 12:24:26;;;;;;;;;;;26.50;99.90;;;;;;5145366;27;20084;-66
2022/07/23 12:27:10;;;;;;;;;;;26.60;99.90;;;;;;5147134;27;20231;-65
2022/07/23 12:29:37;;;;;;;;;;;26.80;99.90;;;;;;5147038;27;19950;-65
2022/07/23 12:32:17;;;;;;;;;;;26.80;99.90;;;;;;5147268;27;19919;-65
2022/07/23 12:34:43;;;;;;;;;;;26.90;99.90;;;;;;5146385;27;19927;-65
2022/07/23 12:37:25;;;;;;;;;;;27.00;99.90;;;;;;5145872;27;19920;-65
2022/07/23 12:39:51;;;;;;;;;;;27.10;99.90;;;;;;5141582;27;20171;-66
2022/07/23 12:42:20;;;;;;;;;;;27.10;99.90;;;;;;5125516;28;20233;-64
2022/07/23 12:45:01;;;;;;;;;;;27.20;99.90;;;;;;5115044;27;19950;-65
2022/07/23 12:47:28;;;;;;;;;;;27.40;99.90;;;;;;5143587;27;19958;-67
2022/07/23 12:49:54;;;;;;;;;;;27.50;99.90;;;;;;5125664;28;19939;-67
2022/07/23 12:52:21;;;;;;;;;;;27.60;99.90;;;;;;5125952;27;19947;-65
2022/07/23 12:54:48;;;;;;;;;;;27.70;99.90;;;;;;5142141;27;19978;-65
2022/07/23 12:57:15;;;;;;;;;;;27.70;99.90;;;;;;5146708;27;19926;-64
2022/07/23 12:59:43;;;;;;;;;;;27.70;99.90;;;;;;5146140;27;19920;-65
2022/07/23 13:02:10;;;;;;;;;;;27.70;99.90;;;;;;5144668;27;19962;-65
2022/07/23 13:04:36;;;;;;;;;;;27.90;99.90;;;;;;5144522;27;19920;-66
2022/07/23 13:07:03;;;;;;;;;;;27.90;99.90;;;;;;5141982;22;19963;-65
2022/07/23 13:09:30;;;;;;;;;;;28.00;99.90;;;;;;5111850;28;19974;-66
2022/07/23 13:11:58;;;;;;;;;;;28.20;99.90;;;;;;5124989;28;19926;-66
2022/07/23 13:14:25;;;;;;;;;;;28.20;99.90;;;;;;5124927;28;19946;-66
2022/07/23 13:16:54;;;;;;;;;;;28.00;99.90;;;;;;5120696;28;19978;-66
2022/07/23 13:19:22;;;;;;;;;;;27.90;99.90;;;;;;5106312;28;20258;-65
2022/07/23 13:21:49;;;;;;;;;;;27.90;99.90;;;;;;5104181;28;19920;-65
2022/07/23 13:24:16;;;;;;;;;;;27.70;99.90;;;;;;5113344;28;20211;-65
2022/07/23 13:26:43;;;;;;;;;;;27.80;99.90;;;;;;5128264;27;19954;-66
2022/07/23 13:29:09;;;;;;;;;;;28.00;99.90;;;;;;5132493;27;20242;-65
2022/07/23 13:31:36;;;;;;;;;;;28.00;99.90;;;;;;5113922;27;19987;-65
2022/07/23 13:34:05;;;;;;;;;;;27.80;99.90;;;;;;5129354;27;19925;-65
2022/07/23 13:36:32;;;;;;;;;;;27.70;99.90;;;;;;5118483;27;19920;-65
2022/07/23 13:38:58;;;;;;;;;;;27.60;99.90;;;;;;5109415;28;19920;-65
2022/07/23 13:41:25;;;;;;;;;;;27.60;99.90;;;;;;5116754;28;19991;-66
2022/07/23 13:43:52;;;;;;;;;;;27.70;99.90;;;;;;5124224;28;19986;-65
2022/07/23 13:46:18;;;;;;;;;;;27.70;99.90;;;;;;5122493;28;19919;-65
2022/07/23 13:48:45;;;;;;;;;;;27.60;99.90;;;;;;5123437;28;19955;-65
2022/07/23 13:51:13;;;;;;;;;;;27.50;99.90;;;;;;5123946;28;19982;-65
2022/07/23 13:53:40;;;;;;;;;;;27.40;99.90;;;;;;5107868;28;19951;-65
2022/07/23 13:56:06;;;;;;;;;;;27.30;99.90;;;;;;5109966;28;19926;-65
2022/07/23 13:58:33;;;;;;;;;;;27.20;99.90;;;;;;5126702;27;19987;-65
2022/07/23 14:01:00;;;;;;;;;;;27.10;99.90;;;;;;5118855;28;19987;-65
2022/07/23 14:03:26;;;;;;;;;;;27.10;99.90;;;;;;5120674;27;19996;-65
2022/07/23 14:05:53;;;;;;;;;;;27.30;99.90;;;;;;5129432;27;19920;-66
2022/07/23 14:08:21;;;;;;;;;;;27.50;99.90;;;;;;5114263;28;19951;-65
2022/07/23 14:10:48;;;;;;;;;;;27.80;99.90;;;;;;5124186;28;19958;-66
2022/07/23 14:13:14;;;;;;;;;;;28.00;99.90;;;;;;5120736;28;19982;-66
2022/07/23 14:15:41;;;;;;;;;;;28.10;99.90;;;;;;5123005;28;19958;-66
2022/07/23 14:18:08;;;;;;;;;;;28.10;99.90;;;;;;5123339;28;19919;-65
2022/07/23 14:20:35;;;;;;;;;;;28.00;99.90;;;;;;5122356;28;20274;-65
2022/07/23 14:23:02;;;;;;;;;;;27.90;99.90;;;;;;5125007;27;19951;-65